Time;durP1;ratioP1;P1;durP2;ratioP2;P2;SDS_P1;SDS_P2;PMS_P1;PMS_P2;Temp;Humidity;BMP_temperature;BMP_pressure;BME280_temperature;BME280_humidity;BME280_pressure;Samples;Min_cycle;Max_cycle;Signal;HPM_P1;HPM_P2
2021/03/25 00:01:46;;;;;;;35.67;20.50;;;;;;;0.79;45.42;95263.59;5101197;28;20197;-69
2021/03/25 00:04:13;;;;;;;32.10;16.92;;;;;;;0.67;45.22;95236.72;5092797;28;20191;-68
2021/03/25 00:06:44;;;;;;;29.25;14.85;;;;;;;0.86;45.28;95263.63;5100158;28;20234;-70
2021/03/25 00:09:16;;;;;;;30.58;16.35;;;;;;;0.93;45.53;95262.69;5093271;28;20599;-69
2021/03/25 00:11:42;;;;;;;32.85;18.05;;;;;;;0.85;45.88;95265.44;5101055;28;20205;-68
2021/03/25 00:14:09;;;;;;;35.42;18.38;;;;;;;0.94;45.69;95264.31;5093472;28;20315;-69
2021/03/25 00:16:36;;;;;;;32.67;16.77;;;;;;;0.87;46.07;95260.06;5099787;28;20299;-69
2021/03/25 00:19:05;;;;;;;35.40;16.40;;;;;;;0.92;45.71;95262.88;5094292;28;20191;-68
2021/03/25 00:21:32;;;;;;;33.67;16.20;;;;;;;0.80;45.91;95262.59;5099137;28;20202;-69
2021/03/25 00:23:58;;;;;;;32.03;15.45;;;;;;;0.63;46.66;95263.84;5094970;28;20669;-69
2021/03/25 00:26:25;;;;;;;33.92;16.20;;;;;;;0.73;46.54;95269.47;5097946;28;20202;-69
2021/03/25 00:28:51;;;;;;;39.75;16.25;;;;;;;0.97;46.45;95261.34;5096338;28;20305;-68
2021/03/25 00:31:18;;;;;;;37.50;18.08;;;;;;;0.84;46.25;95261.22;5098259;28;20190;-70
2021/03/25 00:33:44;;;;;;;42.90;17.25;;;;;;;0.90;46.36;95260.50;5096898;28;20623;-69
2021/03/25 00:36:11;;;;;;;41.35;18.58;;;;;;;0.86;46.36;95258.47;5096459;28;20252;-69
2021/03/25 00:38:37;;;;;;;43.92;20.17;;;;;;;0.80;46.69;95257.44;5098165;28;20230;-68
2021/03/25 00:41:03;;;;;;;48.00;20.30;;;;;;;0.72;47.06;95260.16;5096374;28;20205;-70
2021/03/25 00:43:30;;;;;;;41.28;20.30;;;;;;;0.61;46.93;95260.66;5097999;27;20199;-68
2021/03/25 00:45:57;;;;;;;48.03;21.70;;;;;;;0.66;47.26;95262.66;5094231;28;20199;-69
2021/03/25 00:48:24;;;;;;;44.95;21.05;;;;;;;0.74;47.07;95254.81;5098752;28;20235;-70
2021/03/25 00:51:00;;;;;;;37.75;19.85;;;;;;;0.64;47.25;95264.66;5092962;28;20186;-69
2021/03/25 00:53:33;;;;;;;53.20;26.13;;;;;;;0.53;46.84;95257.41;5098619;28;20202;-69
2021/03/25 00:56:01;;;;;;;74.90;33.17;;;;;;;0.60;46.38;95253.88;5092926;28;20673;-70
2021/03/25 00:58:27;;;;;;;79.35;36.40;;;;;;;0.64;46.47;95255.13;5097228;28;20203;-69
2021/03/25 01:00:55;;;;;;;63.75;28.08;;;;;;;0.69;46.74;95262.31;5091877;28;20211;-69
2021/03/25 01:03:24;;;;;;;64.00;28.52;;;;;;;0.53;47.06;95258.19;5098644;28;20206;-67
2021/03/25 01:05:51;;;;;;;66.47;29.65;;;;;;;0.54;47.27;95253.84;5093155;28;20199;-69
2021/03/25 01:08:18;;;;;;;73.07;31.00;;;;;;;0.16;47.69;95249.91;5099032;28;20630;-69
2021/03/25 01:11:16;;;;;;;64.10;28.98;;;;;;;0.19;47.87;95249.53;5093941;28;20617;-69
2021/03/25 01:13:53;;;;;;;70.15;29.85;;;;;;;0.31;47.65;95256.59;5094354;28;20609;-67
2021/03/25 01:16:24;;;;;;;58.30;27.58;;;;;;;0.23;47.94;95246.41;5096415;28;20669;-67
2021/03/25 01:18:51;;;;;;;58.38;26.50;;;;;;;0.02;48.43;95253.34;5093211;28;20233;-67
2021/03/25 01:21:18;;;;;;;46.35;21.15;;;;;;;0.02;47.90;95243.03;5096316;28;20289;-70
2021/03/25 01:23:45;;;;;;;35.90;18.58;;;;;;;-0.07;47.96;95250.03;5095432;28;20691;-67
2021/03/25 01:26:12;;;;;;;33.08;16.63;;;;;;;-0.13;47.77;95241.28;5094661;28;20198;-67
2021/03/25 01:28:39;;;;;;;29.67;14.68;;;;;;;-0.08;47.95;95261.34;5101299;28;20243;-67
2021/03/25 01:31:05;;;;;;;31.35;14.75;;;;;;;0.00;48.10;95261.25;5094888;28;20558;-68
2021/03/25 01:33:33;;;;;;;36.53;16.27;;;;;;;-0.10;48.19;95247.84;5097168;28;20203;-67
2021/03/25 01:36:00;;;;;;;25.50;14.20;;;;;;;-0.05;47.79;95248.09;5091878;28;20282;-68
2021/03/25 01:38:28;;;;;;;31.33;16.38;;;;;;;-0.17;47.92;95254.69;5096393;28;20675;-68
2021/03/25 01:40:59;;;;;;;42.33;18.52;;;;;;;-0.06;47.06;95252.47;5091626;28;20203;-68
2021/03/25 01:43:40;;;;;;;35.05;16.35;;;;;;;-0.08;47.21;95259.56;5097931;28;20250;-68
2021/03/25 01:46:38;;;;;;;29.08;13.13;;;;;;;-0.01;47.38;95254.47;5094487;28;20226;-68
2021/03/25 01:49:11;;;;;;;20.83;11.35;;;;;;;-0.16;47.51;95256.28;5082920;28;20314;-69
2021/03/25 01:52:00;;;;;;;18.25;10.77;;;;;;;-0.14;47.91;95259.47;5097815;28;20566;-68
2021/03/25 01:54:58;;;;;;;17.52;9.85;;;;;;;-0.20;47.36;95252.50;5088625;28;20207;-69
2021/03/25 01:57:35;;;;;;;16.15;9.88;;;;;;;-0.21;47.65;95258.63;5101483;28;20268;-68
2021/03/25 02:00:33;;;;;;;19.98;10.02;;;;;;;-0.32;47.32;95269.38;5088493;28;20210;-68
2021/03/25 02:03:33;;;;;;;15.50;9.60;;;;;;;-0.31;47.69;95258.13;5072785;28;20210;-69
2021/03/25 02:06:20;;;;;;;17.27;8.90;;;;;;;-0.36;47.99;95260.41;5102158;28;20286;-69
2021/03/25 02:09:06;;;;;;;15.40;8.70;;;;;;;-0.31;47.54;95261.47;5096608;28;20651;-69
2021/03/25 02:12:03;;;;;;;14.88;8.43;;;;;;;-0.36;48.19;95263.78;5098643;28;20626;-69
2021/03/25 02:14:44;;;;;;;14.35;8.10;;;;;;;-0.32;47.97;95266.78;5089818;28;20282;-69
2021/03/25 02:17:10;;;;;;;17.02;9.00;;;;;;;-0.50;47.87;95264.59;5099837;28;20208;-70
2021/03/25 02:19:54;;;;;;;15.63;8.30;;;;;;;-0.59;48.02;95264.88;5091535;28;20218;-70
2021/03/25 02:22:39;;;;;;;12.57;7.82;;;;;;;-0.58;48.21;95272.41;5103634;28;20202;-70
2021/03/25 02:25:17;;;;;;;19.17;9.85;;;;;;;-0.65;48.19;95270.72;5092825;28;20669;-70
2021/03/25 02:28:32;;;;;;;20.00;10.07;;;;;;;-0.69;48.74;95277.22;5101162;28;20673;-69
2021/03/25 02:31:06;;;;;;;18.67;9.95;;;;;;;-0.58;48.88;95276.75;5095310;28;20655;-69
2021/03/25 02:33:35;;;;;;;17.58;9.43;;;;;;;-0.59;48.85;95270.00;5098679;28;20210;-69
2021/03/25 02:36:12;;;;;;;17.42;9.23;;;;;;;-0.46;48.75;95286.44;5096609;28;20256;-70
2021/03/25 02:38:50;;;;;;;17.30;9.48;;;;;;;-0.65;48.86;95289.53;5099526;28;20268;-70
2021/03/25 02:41:27;;;;;;;17.90;9.23;;;;;;;-0.73;48.74;95281.09;5097664;28;20288;-70
2021/03/25 02:44:07;;;;;;;20.50;10.88;;;;;;;-0.58;48.86;95287.03;5097680;28;20216;-70
2021/03/25 02:46:48;;;;;;;20.40;10.50;;;;;;;-0.59;49.46;95270.00;5100232;28;20202;-69
2021/03/25 02:49:21;;;;;;;19.05;9.60;;;;;;;-0.41;49.39;95284.13;5093799;28;20221;-71
2021/03/25 02:51:48;;;;;;;23.75;10.27;;;;;;;-0.26;49.75;95282.34;5103076;28;20207;-70
2021/03/25 02:54:15;;;;;;;19.08;9.98;;;;;;;-0.47;50.05;95269.38;5092799;28;20207;-69
2021/03/25 02:57:07;;;;;;;23.67;11.18;;;;;;;-0.33;49.86;95270.34;5100890;28;20604;-70
2021/03/25 02:59:38;;;;;;;22.02;10.50;;;;;;;-0.10;50.00;95307.09;5092867;28;20214;-70
2021/03/25 03:02:23;;;;;;;19.00;9.73;;;;;;;-0.09;50.15;95306.91;5102847;28;20201;-70
2021/03/25 03:04:59;;;;;;;19.48;9.60;;;;;;;-0.12;50.06;95315.00;5092185;28;20289;-69
2021/03/25 03:07:37;;;;;;;21.30;11.50;;;;;;;-0.22;50.17;95311.09;5107854;28;20238;-69
2021/03/25 03:10:38;;;;;;;24.20;12.13;;;;;;;-0.33;50.03;95303.84;5093035;28;20226;-70
2021/03/25 03:13:06;;;;;;;34.60;14.40;;;;;;;-0.37;49.89;95289.72;5101881;28;20203;-70
2021/03/25 03:15:45;;;;;;;35.88;16.63;;;;;;;-0.29;49.72;95317.91;5093502;28;20271;-70
2021/03/25 03:18:38;;;;;;;37.72;18.27;;;;;;;-0.51;50.13;95318.84;5111479;28;20316;-68
2021/03/25 03:21:27;;;;;;;40.22;19.35;;;;;;;-0.35;50.03;95319.47;5104779;28;20997;-69
2021/03/25 03:23:57;;;;;;;45.83;20.75;;;;;;;-0.43;50.19;95331.59;5111226;28;20203;-69
2021/03/25 03:26:50;;;;;;;46.22;21.38;;;;;;;-0.22;49.62;95323.97;5101751;28;20257;-71
2021/03/25 03:29:18;;;;;;;45.60;19.00;;;;;;;-0.22;50.04;95329.13;5093737;28;20222;-70
2021/03/25 03:31:49;;;;;;;47.35;20.63;;;;;;;-0.18;49.66;95326.00;5099565;28;20203;-69
2021/03/25 03:34:35;;;;;;;57.92;25.25;;;;;;;-0.13;49.53;95335.78;5109619;28;20692;-70
2021/03/25 03:37:18;;;;;;;69.30;29.25;;;;;;;-0.29;50.51;95335.94;5103846;28;20240;-70
2021/03/25 03:39:53;;;;;;;70.45;30.92;;;;;;;-0.27;50.55;95328.84;5090292;28;20202;-70
2021/03/25 03:42:33;;;;;;;73.45;32.85;;;;;;;-0.16;50.47;95341.28;5097373;28;20311;-69
2021/03/25 03:45:00;;;;;;;76.88;35.58;;;;;;;-0.26;50.35;95343.34;5092076;28;20219;-69
2021/03/25 03:47:34;;;;;;;80.88;37.13;;;;;;;-0.18;50.33;95340.66;5102277;28;20301;-69
2021/03/25 03:50:08;;;;;;;87.78;39.97;;;;;;;-0.13;50.36;95338.34;5109804;28;20291;-69
2021/03/25 03:52:38;;;;;;;68.22;31.98;;;;;;;-0.06;50.26;95344.38;5097580;28;20661;-70
2021/03/25 03:55:12;;;;;;;64.85;29.95;;;;;;;-0.05;49.74;95345.97;5092025;28;20195;-69
2021/03/25 03:58:27;;;;;;;58.50;27.73;;;;;;;-0.21;49.51;95348.75;5100398;28;20210;-70
2021/03/25 04:01:06;;;;;;;36.50;16.75;;;;;;;-0.67;49.86;95355.00;5093246;28;20203;-70
2021/03/25 04:03:43;;;;;;;37.42;16.05;;;;;;;-0.71;50.43;95358.91;5096895;28;20207;-69
2021/03/25 04:06:53;;;;;;;39.00;17.75;;;;;;;-0.58;50.60;95354.75;5047842;28;20227;-69
2021/03/25 04:09:43;;;;;;;36.72;16.85;;;;;;;-0.33;50.38;95368.19;5086770;28;20288;-70
2021/03/25 04:12:36;;;;;;;38.53;17.98;;;;;;;-0.19;50.29;95369.97;5101358;28;20242;-69
2021/03/25 04:15:21;;;;;;;36.72;16.33;;;;;;;-0.43;50.37;95377.94;5104985;28;20600;-69
2021/03/25 04:18:03;;;;;;;31.95;15.77;;;;;;;-0.27;50.19;95372.63;5099158;28;20207;-70
2021/03/25 04:20:56;;;;;;;31.42;13.77;;;;;;;-0.38;49.83;95360.19;5093740;28;20280;-69
2021/03/25 04:23:27;;;;;;;30.55;14.00;;;;;;;-0.42;49.78;95358.97;5104092;28;20240;-70
2021/03/25 04:26:05;;;;;;;29.30;13.45;;;;;;;-0.36;50.12;95373.69;5105094;28;20583;-69
2021/03/25 04:28:38;;;;;;;26.90;12.93;;;;;;;-0.37;50.09;95384.97;5098343;28;20210;-69
2021/03/25 04:31:07;;;;;;;20.20;11.07;;;;;;;-0.60;50.66;95382.44;5092997;28;20625;-69
2021/03/25 04:33:36;;;;;;;23.85;11.98;;;;;;;-0.44;50.19;95379.69;5091870;28;20621;-69
2021/03/25 04:36:06;;;;;;;23.63;12.13;;;;;;;-0.61;50.42;95375.72;5108619;28;20271;-69
2021/03/25 04:38:36;;;;;;;29.65;14.50;;;;;;;-0.59;50.81;95386.63;5111545;28;20198;-69
2021/03/25 04:41:07;;;;;;;33.25;15.25;;;;;;;-0.71;51.32;95389.81;5106575;28;20195;-70
2021/03/25 04:43:40;;;;;;;36.95;16.73;;;;;;;-0.67;51.24;95391.03;5091290;28;20196;-70
2021/03/25 04:46:35;;;;;;;38.08;16.65;;;;;;;-0.48;50.70;95403.41;5090631;28;20193;-69
2021/03/25 04:49:12;;;;;;;38.53;17.38;;;;;;;-0.60;50.91;95392.72;5090601;28;20215;-71
2021/03/25 04:51:38;;;;;;;33.35;16.90;;;;;;;-0.67;50.70;95391.03;5091007;28;20172;-71
2021/03/25 04:54:33;;;;;;;33.90;15.68;;;;;;;-0.70;51.29;95417.94;5090587;28;20191;-73
2021/03/25 04:57:11;;;;;;;31.08;14.45;;;;;;;-0.61;51.24;95410.94;5103419;28;20225;-70
2021/03/25 04:59:39;;;;;;;35.00;15.00;;;;;;;-0.58;51.12;95413.13;5109216;28;20650;-70
2021/03/25 05:02:07;;;;;;;32.60;13.98;;;;;;;-0.61;51.49;95422.03;5105805;28;20202;-69
2021/03/25 05:04:36;;;;;;;30.38;13.85;;;;;;;-0.63;51.04;95402.56;5111756;28;20273;-71
2021/03/25 05:07:04;;;;;;;26.20;12.45;;;;;;;-0.47;50.98;95421.25;5107363;28;20230;-70
2021/03/25 05:09:34;;;;;;;26.95;12.75;;;;;;;-0.46;51.25;95419.47;5090563;28;20304;-70
2021/03/25 05:12:02;;;;;;;24.15;12.25;;;;;;;-0.53;51.31;95424.50;5092717;28;20249;-70
2021/03/25 05:14:29;;;;;;;25.50;11.90;;;;;;;-0.47;51.18;95417.88;5097507;28;20660;-67
2021/03/25 05:17:11;;;;;;;24.05;11.82;;;;;;;-0.35;51.04;95431.94;5105908;28;20253;-67
2021/03/25 05:19:55;;;;;;;19.88;10.88;;;;;;;-0.18;50.48;95433.34;5098298;28;20264;-66
2021/03/25 05:22:47;;;;;;;25.95;11.55;;;;;;;-0.28;50.65;95432.81;5098481;28;20606;-65
2021/03/25 05:25:18;;;;;;;20.10;10.95;;;;;;;-0.11;52.40;95439.44;5098086;28;20198;-66
2021/03/25 05:27:59;;;;;;;22.42;10.15;;;;;;;-0.05;50.56;95429.19;5088027;28;20201;-65
2021/03/25 05:30:30;;;;;;;23.67;11.60;;;;;;;0.03;50.21;95425.75;5096609;28;20328;-68
2021/03/25 05:33:04;;;;;;;25.80;11.65;;;;;;;0.07;50.11;95432.16;5090742;28;20287;-68
2021/03/25 05:35:40;;;;;;;26.05;13.65;;;;;;;0.22;49.92;95430.34;5090467;28;20252;-69
2021/03/25 05:38:07;;;;;;;32.50;17.55;;;;;;;0.23;50.07;95426.81;5100306;28;20260;-69
2021/03/25 05:40:59;;;;;;;55.35;29.40;;;;;;;0.14;50.34;95430.47;5100189;28;20201;-70
2021/03/25 05:43:44;;;;;;;48.50;22.80;;;;;;;0.26;49.95;95430.78;5108896;28;20230;-69
2021/03/25 05:46:37;;;;;;;38.70;21.00;;;;;;;0.23;50.14;95429.38;5097517;28;20199;-68
2021/03/25 05:49:06;;;;;;;39.45;19.83;;;;;;;0.14;50.25;95435.59;5090458;28;20280;-70
2021/03/25 05:52:10;;;;;;;44.35;19.48;;;;;;;0.31;49.63;95431.84;5094513;28;20241;-68
2021/03/25 05:54:46;;;;;;;40.70;19.27;;;;;;;0.34;50.23;95435.84;5114022;28;20243;-68
2021/03/25 05:57:26;;;;;;;40.63;19.63;;;;;;;0.02;51.65;95442.16;5115364;28;20187;-68
2021/03/25 06:00:07;;;;;;;37.50;18.52;;;;;;;0.28;51.29;95445.09;5114746;28;20201;-68
2021/03/25 06:02:40;;;;;;;35.28;18.60;;;;;;;0.29;51.90;95446.72;5115085;28;20279;-66
2021/03/25 06:05:13;;;;;;;35.58;18.15;;;;;;;0.58;51.65;95438.94;5113588;28;20611;-67
2021/03/25 06:08:09;;;;;;;37.15;19.02;;;;;;;0.69;51.38;95443.59;5111172;28;20281;-65
2021/03/25 06:10:41;;;;;;;35.80;17.80;;;;;;;0.84;51.43;95446.19;5113608;28;20241;-63
2021/03/25 06:13:25;;;;;;;37.17;16.02;;;;;;;0.90;51.21;95446.25;5114235;28;20218;-65
2021/03/25 06:16:00;;;;;;;33.20;15.20;;;;;;;0.97;50.80;95449.69;5109603;28;20198;-66
2021/03/25 06:18:58;;;;;;;31.15;14.15;;;;;;;1.07;50.45;95456.31;5108047;28;20655;-68
2021/03/25 06:21:39;;;;;;;28.15;14.00;;;;;;;0.90;50.52;95441.09;5108995;28;20198;-68
2021/03/25 06:24:17;;;;;;;32.15;14.05;;;;;;;1.19;49.71;95453.06;5111850;28;20202;-65
2021/03/25 06:26:55;;;;;;;36.28;13.98;;;;;;;1.32;49.54;95449.81;5114238;28;20202;-68
2021/03/25 06:29:27;;;;;;;26.27;13.55;;;;;;;1.42;49.51;95455.47;5114509;28;20249;-64
2021/03/25 06:32:01;;;;;;;28.05;13.60;;;;;;;1.70;48.85;95458.88;5114244;28;20212;-66
2021/03/25 06:34:41;;;;;;;37.80;14.52;;;;;;;1.73;48.62;95463.69;5113246;28;20208;-65
2021/03/25 06:37:16;;;;;;;38.10;19.38;;;;;;;1.28;48.38;95470.03;5112444;28;20277;-67
2021/03/25 06:40:16;;;;;;;45.35;20.52;;;;;;;1.23;48.50;95471.56;5111349;28;20190;-68
2021/03/25 06:42:47;;;;;;;51.67;21.92;;;;;;;1.43;48.46;95470.78;5114307;28;20227;-67
2021/03/25 06:45:14;;;;;;;43.38;20.23;;;;;;;1.65;48.03;95472.38;5113858;28;20281;-69
2021/03/25 06:48:01;;;;;;;40.13;19.45;;;;;;;1.81;47.61;95476.47;5114200;28;20202;-68
2021/03/25 06:50:37;;;;;;;45.00;19.95;;;;;;;1.80;48.25;95464.53;5113479;28;20214;-66
2021/03/25 06:53:21;;;;;;;50.20;18.35;;;;;;;2.01;47.92;95467.88;5113740;28;20191;-68
2021/03/25 06:55:49;;;;;;;34.63;18.13;;;;;;;2.14;47.40;95456.81;5113857;28;20194;-70
2021/03/25 06:58:24;;;;;;;32.45;17.50;;;;;;;1.94;47.32;95466.22;5114007;28;20541;-66
2021/03/25 07:01:00;;;;;;;34.17;17.90;;;;;;;1.94;47.42;95461.06;5114093;28;20260;-66
2021/03/25 07:03:28;;;;;;;34.25;19.10;;;;;;;2.10;47.34;95460.75;5114352;28;20291;-67
2021/03/25 07:05:55;;;;;;;38.60;16.58;;;;;;;2.23;47.16;95447.91;5113142;28;20187;-68
2021/03/25 07:08:25;;;;;;;31.77;16.20;;;;;;;2.42;46.83;95456.78;5113619;28;20233;-66
2021/03/25 07:10:56;;;;;;;29.83;15.85;;;;;;;2.57;46.71;95450.50;5114035;28;20230;-65
2021/03/25 07:13:59;;;;;;;29.63;15.88;;;;;;;2.68;46.99;95460.28;5113671;28;20207;-69
2021/03/25 07:16:29;;;;;;;27.92;14.40;;;;;;;2.71;47.05;95462.50;5111359;28;20286;-65
2021/03/25 07:19:05;;;;;;;27.15;15.52;;;;;;;2.86;46.08;95436.47;5113158;28;20205;-66
2021/03/25 07:21:40;;;;;;;30.77;14.55;;;;;;;2.88;46.31;95450.78;5113333;28;20239;-63
2021/03/25 07:24:25;;;;;;;26.83;14.05;;;;;;;2.62;45.28;95461.06;5113633;28;20202;-68
2021/03/25 07:27:25;;;;;;;30.63;13.23;;;;;;;2.61;44.74;95459.44;5113431;28;20621;-71
2021/03/25 07:30:02;;;;;;;23.55;12.35;;;;;;;2.69;44.98;95446.34;5109585;28;20245;-64
2021/03/25 07:32:37;;;;;;;26.67;14.07;;;;;;;2.86;44.27;95455.38;5113310;28;20652;-68
2021/03/25 07:35:31;;;;;;;20.38;13.00;;;;;;;3.12;43.96;95461.63;5112776;28;20198;-67
2021/03/25 07:38:01;;;;;;;23.83;12.60;;;;;;;3.22;43.68;95462.03;5113000;28;20254;-69
2021/03/25 07:40:30;;;;;;;17.95;9.68;;;;;;;3.08;42.68;95467.19;5113160;28;20210;-66
2021/03/25 07:43:13;;;;;;;18.27;10.43;;;;;;;3.22;42.23;95462.03;5113004;28;20194;-65
2021/03/25 07:46:29;;;;;;;22.20;12.52;;;;;;;3.29;42.59;95460.25;5112859;28;20260;-67
2021/03/25 07:49:12;;;;;;;23.70;11.45;;;;;;;3.71;43.61;95454.72;5112506;28;20201;-65
2021/03/25 07:51:49;;;;;;;20.63;11.70;;;;;;;3.97;43.88;95457.31;5112901;28;20194;-66
2021/03/25 07:54:24;;;;;;;20.88;11.80;;;;;;;4.16;42.74;95448.69;5112680;28;20225;-63
2021/03/25 07:57:10;;;;;;;19.65;10.70;;;;;;;4.19;40.91;95448.31;5112660;28;20668;-66
2021/03/25 07:59:41;;;;;;;21.67;11.38;;;;;;;4.30;40.50;95452.88;5112498;28;20756;-63
2021/03/25 08:02:27;;;;;;;16.83;10.40;;;;;;;4.19;39.88;95445.72;5112607;28;20205;-67
2021/03/25 08:04:56;;;;;;;22.65;11.00;;;;;;;4.44;40.17;95440.66;5112694;28;20206;-62
2021/03/25 08:07:24;;;;;;;10.82;6.05;;;;;;;4.29;38.62;95440.91;5112858;28;20230;-65
2021/03/25 08:09:56;;;;;;;11.40;7.78;;;;;;;4.32;39.36;95439.72;5111813;28;20532;-67
2021/03/25 08:12:32;;;;;;;12.48;7.38;;;;;;;4.05;39.53;95421.59;5112715;28;20259;-67
2021/03/25 08:15:05;;;;;;;12.40;7.18;;;;;;;4.14;39.50;95438.53;5112367;28;20699;-67
2021/03/25 08:17:41;;;;;;;12.20;7.15;;;;;;;4.27;38.89;95416.19;5111857;28;20202;-66
2021/03/25 08:20:19;;;;;;;14.07;7.22;;;;;;;4.67;38.78;95431.41;5110724;28;20588;-67
2021/03/25 08:22:46;;;;;;;14.30;7.50;;;;;;;4.93;38.84;95433.91;5112628;28;20206;-64
2021/03/25 08:25:34;;;;;;;10.90;6.57;;;;;;;5.00;37.45;95433.84;5112134;28;20186;-67
2021/03/25 08:28:20;;;;;;;7.53;4.78;;;;;;;5.31;39.11;95427.91;5112157;28;20620;-66
2021/03/25 08:31:04;;;;;;;7.25;3.97;;;;;;;5.50;36.14;95419.16;5111905;28;20719;-67
2021/03/25 08:33:47;;;;;;;8.27;4.95;;;;;;;5.75;38.13;95417.38;5111594;28;20206;-63
2021/03/25 08:36:24;;;;;;;7.70;4.82;;;;;;;5.96;36.91;95409.22;5111995;28;20198;-68
2021/03/25 08:39:06;;;;;;;11.73;5.50;;;;;;;5.92;36.86;95414.06;5112320;28;21432;-68
2021/03/25 08:41:46;;;;;;;5.32;3.80;;;;;;;5.72;32.77;95407.41;5111804;28;20209;-64
2021/03/25 08:44:32;;;;;;;6.10;3.97;;;;;;;5.71;34.53;95411.03;5110414;28;20233;-69
2021/03/25 08:47:16;;;;;;;7.80;4.40;;;;;;;5.35;34.18;95413.47;5111780;28;20186;-65
2021/03/25 08:50:15;;;;;;;7.72;5.00;;;;;;;5.14;33.29;95415.41;5111491;28;20226;-67
2021/03/25 08:52:43;;;;;;;6.05;4.10;;;;;;;5.03;33.67;95407.47;5111773;28;20203;-63
2021/03/25 08:55:38;;;;;;;6.03;4.65;;;;;;;5.56;33.98;95405.34;5110234;28;20664;-66
2021/03/25 08:58:12;;;;;;;8.90;5.00;;;;;;;6.17;35.26;95401.00;5111442;28;20248;-67
2021/03/25 09:00:42;;;;;;;8.57;5.60;;;;;;;6.45;34.21;95393.50;5111466;28;20216;-66
2021/03/25 09:03:21;;;;;;;7.78;4.93;;;;;;;6.71;34.24;95401.03;5110873;28;20305;-69
2021/03/25 09:06:11;;;;;;;12.15;4.63;;;;;;;6.28;32.59;95396.91;5111692;28;20210;-63
2021/03/25 09:08:39;;;;;;;8.70;5.60;;;;;;;6.69;34.62;95397.84;5111449;28;20198;-67
2021/03/25 09:11:09;;;;;;;7.68;5.35;;;;;;;6.94;32.64;95398.53;5111169;28;20206;-68
2021/03/25 09:13:56;;;;;;;15.65;8.75;;;;;;;7.40;32.36;95397.88;5111257;28;20226;-68
2021/03/25 09:16:30;;;;;;;12.55;6.32;;;;;;;7.57;32.91;95403.25;5111091;28;20201;-67
2021/03/25 09:18:58;;;;;;;9.55;4.80;;;;;;;7.66;32.42;95412.34;5110642;28;20285;-64
2021/03/25 09:21:29;;;;;;;10.40;5.97;;;;;;;7.60;30.64;95408.00;5110924;28;20288;-64
2021/03/25 09:24:07;;;;;;;12.82;5.75;;;;;;;7.69;32.48;95402.25;5111057;28;20277;-66
2021/03/25 09:26:49;;;;;;;13.50;6.75;;;;;;;7.81;32.48;95391.84;5111047;28;20229;-67
2021/03/25 09:29:17;;;;;;;7.90;5.15;;;;;;;8.12;30.77;95396.69;5110091;28;20289;-67
2021/03/25 09:31:55;;;;;;;4.65;3.15;;;;;;;7.87;29.82;95398.75;5110932;28;20190;-67
2021/03/25 09:34:22;;;;;;;6.18;4.30;;;;;;;7.92;30.22;95401.47;5110565;28;20206;-63
2021/03/25 09:37:12;;;;;;;8.55;4.55;;;;;;;7.56;29.75;95412.06;5111433;28;20194;-64
2021/03/25 09:39:38;;;;;;;12.05;5.97;;;;;;;7.85;30.28;95406.00;5110743;28;20301;-68
2021/03/25 09:42:26;;;;;;;11.73;7.50;;;;;;;7.23;30.99;95412.56;5110938;28;20197;-69
2021/03/25 09:45:43;;;;;;;5.63;3.95;;;;;;;7.07;29.15;95406.16;5110960;28;20695;-64
2021/03/25 09:48:21;;;;;;;5.47;4.10;;;;;;;7.50;29.36;95402.56;5112156;28;20255;-68
2021/03/25 09:51:02;;;;;;;6.97;3.88;;;;;;;7.92;29.28;95411.91;5110557;28;20725;-66
2021/03/25 09:53:52;;;;;;;8.10;4.20;;;;;;;7.74;29.87;95415.41;5110754;28;20202;-69
2021/03/25 09:56:31;;;;;;;6.43;4.63;;;;;;;8.09;30.51;95403.19;5110786;28;20206;-66
2021/03/25 09:58:59;;;;;;;8.32;5.32;;;;;;;8.30;30.17;95401.84;5110634;28;20170;-66
2021/03/25 10:01:51;;;;;;;9.52;5.30;;;;;;;8.65;30.39;95405.19;5110569;28;20179;-68
2021/03/25 10:04:29;;;;;;;15.90;7.32;;;;;;;8.68;31.33;95396.91;5110133;28;20210;-68
2021/03/25 10:07:03;;;;;;;7.80;4.55;;;;;;;8.24;29.50;95405.38;5110408;28;20224;-68
2021/03/25 10:09:47;;;;;;;5.53;3.88;;;;;;;8.72;28.76;95400.63;5109234;28;20305;-68
2021/03/25 10:12:53;;;;;;;8.80;4.40;;;;;;;8.63;29.74;95404.63;5108453;28;20194;-67
2021/03/25 10:15:29;;;;;;;8.02;4.70;;;;;;;8.78;30.99;95406.75;5090506;28;20191;-65
2021/03/25 10:18:05;;;;;;;9.30;5.10;;;;;;;8.74;29.21;95410.88;5089868;28;20207;-67
2021/03/25 10:20:53;;;;;;;10.55;5.28;;;;;;;8.44;28.74;95411.03;5090100;28;20203;-66
2021/03/25 10:23:30;;;;;;;8.63;5.65;;;;;;;8.46;30.42;95409.00;5089943;28;20199;-67
2021/03/25 10:26:09;;;;;;;10.00;5.13;;;;;;;8.46;29.65;95408.19;5089909;28;20293;-67
2021/03/25 10:29:11;;;;;;;8.52;5.38;;;;;;;7.77;30.84;95408.97;5090147;28;20207;-65
2021/03/25 10:31:48;;;;;;;7.60;5.30;;;;;;;8.19;30.04;95413.06;5077618;28;20231;-63
2021/03/25 10:34:45;;;;;;;8.55;5.03;;;;;;;8.38;31.91;95398.88;5089918;28;20673;-66
2021/03/25 10:37:36;;;;;;;10.88;5.40;;;;;;;8.57;29.93;95402.16;5085857;28;20677;-63
2021/03/25 10:40:15;;;;;;;8.30;4.93;;;;;;;8.23;30.24;95406.34;5093078;28;20211;-65
2021/03/25 10:42:44;;;;;;;7.20;4.60;;;;;;;8.08;30.35;95406.03;5094052;28;20587;-66
2021/03/25 10:45:27;;;;;;;7.80;5.10;;;;;;;8.12;30.40;95407.94;5093755;28;20199;-69
2021/03/25 10:48:33;;;;;;;10.30;4.72;;;;;;;8.20;30.03;95410.22;5093422;28;20191;-67
2021/03/25 10:51:06;;;;;;;8.30;5.03;;;;;;;8.23;29.87;95402.97;5093692;28;20575;-67
2021/03/25 10:53:49;;;;;;;11.80;4.63;;;;;;;8.42;31.41;95386.97;5093282;28;20203;-65
2021/03/25 10:56:28;;;;;;;11.07;4.82;;;;;;;8.66;30.47;95401.56;5093738;28;20180;-68
2021/03/25 10:59:10;;;;;;;7.70;4.60;;;;;;;8.66;29.62;95404.19;5093619;28;20597;-65
2021/03/25 11:01:51;;;;;;;6.50;3.90;;;;;;;8.18;29.22;95385.34;5093407;28;20195;-64
2021/03/25 11:04:25;;;;;;;6.72;3.97;;;;;;;8.15;29.36;95401.50;5093652;28;20289;-66
2021/03/25 11:06:53;;;;;;;5.90;4.18;;;;;;;7.95;29.55;95401.03;5097537;28;20792;-66
2021/03/25 11:09:28;;;;;;;5.22;3.70;;;;;;;7.96;29.39;95398.19;5093502;28;20775;-68
2021/03/25 11:12:19;;;;;;;6.40;3.55;;;;;;;7.94;29.62;95394.22;5093103;28;20205;-69
2021/03/25 11:14:55;;;;;;;7.43;4.20;;;;;;;7.99;29.28;95396.94;5093392;28;20922;-68
2021/03/25 11:17:31;;;;;;;6.68;4.10;;;;;;;8.10;29.03;95398.78;5092639;28;20219;-66
2021/03/25 11:19:59;;;;;;;6.40;4.38;;;;;;;8.33;29.37;95397.97;5093105;28;20252;-68
2021/03/25 11:22:30;;;;;;;6.03;4.10;;;;;;;7.51;28.48;95401.53;5092983;28;20194;-71
2021/03/25 11:25:06;;;;;;;5.57;3.58;;;;;;;8.41;28.35;95395.03;5092974;28;20202;-69
2021/03/25 11:27:33;;;;;;;6.85;3.92;;;;;;;9.06;27.78;95394.50;5093103;28;20307;-68
2021/03/25 11:30:03;;;;;;;5.82;3.88;;;;;;;8.53;27.34;95382.72;5092924;28;20218;-66
2021/03/25 11:32:38;;;;;;;5.57;3.88;;;;;;;8.75;27.21;95387.13;5092594;28;20199;-67
2021/03/25 11:35:28;;;;;;;7.72;4.60;;;;;;;9.12;27.43;95384.94;5092774;28;20213;-66
2021/03/25 11:37:55;;;;;;;6.25;3.70;;;;;;;9.05;26.53;95379.06;5091540;28;20215;-70
2021/03/25 11:40:42;;;;;;;8.18;4.22;;;;;;;9.39;26.36;95377.28;5092962;28;20195;-65
2021/03/25 11:43:12;;;;;;;5.80;3.90;;;;;;;9.42;25.57;95382.03;5092708;28;20234;-68
2021/03/25 11:45:47;;;;;;;5.70;4.13;;;;;;;9.93;26.06;95372.16;5092798;28;20192;-68
2021/03/25 11:48:18;;;;;;;6.90;3.45;;;;;;;8.53;27.14;95386.16;5092297;28;20803;-67
2021/03/25 11:50:46;;;;;;;6.55;4.25;;;;;;;8.54;26.92;95386.94;5091908;28;20655;-69
2021/03/25 11:53:34;;;;;;;5.25;3.90;;;;;;;8.19;27.30;95373.91;5092731;28;20575;-68
2021/03/25 11:56:03;;;;;;;5.28;3.92;;;;;;;8.87;27.98;95380.03;5092443;28;20608;-67
2021/03/25 11:58:29;;;;;;;7.95;4.13;;;;;;;9.01;27.63;95375.31;5092634;28;20198;-67
2021/03/25 12:01:20;;;;;;;11.85;4.72;;;;;;;9.05;29.62;95387.69;5092535;28;20307;-70
2021/03/25 12:04:15;;;;;;;8.75;4.22;;;;;;;9.18;28.28;95392.63;5092270;28;20204;-68
2021/03/25 12:07:12;;;;;;;5.63;3.80;;;;;;;9.32;28.72;95392.34;5082819;28;20330;-69
2021/03/25 12:10:11;;;;;;;6.38;4.35;;;;;;;9.61;29.23;95386.03;5091908;28;20239;-70
2021/03/25 12:12:37;;;;;;;5.65;3.50;;;;;;;9.33;26.29;95379.03;5087245;28;20635;-69
2021/03/25 12:15:04;;;;;;;7.45;4.22;;;;;;;8.61;26.77;95385.78;5091936;28;20195;-65
2021/03/25 12:17:30;;;;;;;7.50;4.32;;;;;;;8.53;27.68;95380.91;5091896;28;20201;-69
2021/03/25 12:19:58;;;;;;;7.25;4.38;;;;;;;8.79;26.98;95380.41;5092093;28;20191;-68